sensor_id;sensor_type;location;lat;lon;timestamp;P1;durP1;ratioP1;P2;durP2;ratioP2
55601;SDS011;59921;51.332;12.410;2023-04-25T00:01:11;1.38;;;1.00;;
55601;SDS011;59921;51.332;12.410;2023-04-25T00:03:38;0.98;;;0.88;;
55601;SDS011;59921;51.332;12.410;2023-04-25T00:06:04;0.80;;;0.80;;
55601;SDS011;59921;51.332;12.410;2023-04-25T00:08:30;1.08;;;0.98;;
55601;SDS011;59921;51.332;12.410;2023-04-25T00:10:56;1.15;;;0.90;;
55601;SDS011;59921;51.332;12.410;2023-04-25T00:13:22;0.88;;;0.82;;
55601;SDS011;59921;51.332;12.410;2023-04-25T00:15:47;1.30;;;0.90;;
55601;SDS011;59921;51.332;12.410;2023-04-25T00:18:13;1.00;;;0.82;;
55601;SDS011;59921;51.332;12.410;2023-04-25T00:20:40;1.00;;;0.90;;
55601;SDS011;59921;51.332;12.410;2023-04-25T00:23:14;1.15;;;0.90;;
55601;SDS011;59921;51.332;12.410;2023-04-25T00:25:43;1.20;;;0.90;;
55601;SDS011;59921;51.332;12.410;2023-04-25T00:28:10;1.10;;;0.90;;
55601;SDS011;59921;51.332;12.410;2023-04-25T00:30:36;0.73;;;0.70;;
55601;SDS011;59921;51.332;12.410;2023-04-25T00:33:01;1.15;;;0.90;;
55601;SDS011;59921;51.332;12.410;2023-04-25T00:35:27;1.08;;;0.90;;
55601;SDS011;59921;51.332;12.410;2023-04-25T00:37:53;1.60;;;1.05;;
55601;SDS011;59921;51.332;12.410;2023-04-25T00:40:20;0.80;;;0.75;;
55601;SDS011;59921;51.332;12.410;2023-04-25T00:42:46;0.73;;;0.73;;
55601;SDS011;59921;51.332;12.410;2023-04-25T00:45:13;1.17;;;0.90;;
55601;SDS011;59921;51.332;12.410;2023-04-25T00:47:40;0.82;;;0.80;;
55601;SDS011;59921;51.332;12.410;2023-04-25T00:50:07;1.00;;;0.90;;
55601;SDS011;59921;51.332;12.410;2023-04-25T00:52:33;0.90;;;0.80;;
55601;SDS011;59921;51.332;12.410;2023-04-25T00:54:59;0.80;;;0.70;;
55601;SDS011;59921;51.332;12.410;2023-04-25T00:57:24;1.30;;;1.00;;
55601;SDS011;59921;51.332;12.410;2023-04-25T00:59:51;0.82;;;0.77;;
55601;SDS011;59921;51.332;12.410;2023-04-25T01:02:17;1.05;;;0.80;;
55601;SDS011;59921;51.332;12.410;2023-04-25T01:04:44;1.00;;;0.80;;
55601;SDS011;59921;51.332;12.410;2023-04-25T01:07:10;1.00;;;0.77;;
55601;SDS011;59921;51.332;12.410;2023-04-25T01:09:36;1.00;;;0.82;;
55601;SDS011;59921;51.332;12.410;2023-04-25T01:12:01;0.70;;;0.70;;
55601;SDS011;59921;51.332;12.410;2023-04-25T01:14:28;1.10;;;0.90;;
55601;SDS011;59921;51.332;12.410;2023-04-25T01:16:55;0.80;;;0.80;;
55601;SDS011;59921;51.332;12.410;2023-04-25T01:19:20;0.88;;;0.80;;
55601;SDS011;59921;51.332;12.410;2023-04-25T01:21:46;1.20;;;0.90;;
55601;SDS011;59921;51.332;12.410;2023-04-25T01:24:12;0.75;;;0.75;;
55601;SDS011;59921;51.332;12.410;2023-04-25T01:26:38;1.20;;;0.90;;
55601;SDS011;59921;51.332;12.410;2023-04-25T01:29:05;0.82;;;0.80;;
55601;SDS011;59921;51.332;12.410;2023-04-25T01:31:32;0.90;;;0.70;;
55601;SDS011;59921;51.332;12.410;2023-04-25T01:33:59;1.10;;;0.80;;
55601;SDS011;59921;51.332;12.410;2023-04-25T01:36:25;1.20;;;0.93;;
55601;SDS011;59921;51.332;12.410;2023-04-25T01:38:52;1.08;;;0.88;;
55601;SDS011;59921;51.332;12.410;2023-04-25T01:41:18;0.90;;;0.75;;
55601;SDS011;59921;51.332;12.410;2023-04-25T01:43:44;0.73;;;0.70;;
55601;SDS011;59921;51.332;12.410;2023-04-25T01:46:10;0.75;;;0.70;;
55601;SDS011;59921;51.332;12.410;2023-04-25T01:48:36;0.88;;;0.73;;
55601;SDS011;59921;51.332;12.410;2023-04-25T01:51:02;0.90;;;0.70;;
55601;SDS011;59921;51.332;12.410;2023-04-25T01:53:28;0.93;;;0.73;;
55601;SDS011;59921;51.332;12.410;2023-04-25T01:55:53;0.90;;;0.70;;
55601;SDS011;59921;51.332;12.410;2023-04-25T01:58:19;1.00;;;0.70;;
55601;SDS011;59921;51.332;12.410;2023-04-25T02:00:44;0.70;;;0.70;;
55601;SDS011;59921;51.332;12.410;2023-04-25T02:03:11;0.93;;;0.77;;
55601;SDS011;59921;51.332;12.410;2023-04-25T02:05:36;0.85;;;0.75;;
55601;SDS011;59921;51.332;12.410;2023-04-25T02:08:04;0.90;;;0.70;;
55601;SDS011;59921;51.332;12.410;2023-04-25T02:10:33;0.70;;;0.60;;
55601;SDS011;59921;51.332;12.410;2023-04-25T02:12:59;0.90;;;0.80;;
55601;SDS011;59921;51.332;12.410;2023-04-25T02:15:25;0.80;;;0.70;;
55601;SDS011;59921;51.332;12.410;2023-04-25T02:17:51;1.02;;;0.80;;
55601;SDS011;59921;51.332;12.410;2023-04-25T02:20:22;0.75;;;0.68;;
55601;SDS011;59921;51.332;12.410;2023-04-25T02:22:48;0.80;;;0.70;;
55601;SDS011;59921;51.332;12.410;2023-04-25T02:25:14;1.00;;;0.80;;
55601;SDS011;59921;51.332;12.410;2023-04-25T02:27:41;0.65;;;0.65;;
55601;SDS011;59921;51.332;12.410;2023-04-25T02:30:06;0.88;;;0.80;;
55601;SDS011;59921;51.332;12.410;2023-04-25T02:32:32;0.70;;;0.70;;
55601;SDS011;59921;51.332;12.410;2023-04-25T02:34:59;0.70;;;0.70;;
55601;SDS011;59921;51.332;12.410;2023-04-25T02:37:29;0.70;;;0.60;;
55601;SDS011;59921;51.332;12.410;2023-04-25T02:39:58;1.48;;;0.80;;
55601;SDS011;59921;51.332;12.410;2023-04-25T02:42:24;0.68;;;0.60;;
55601;SDS011;59921;51.332;12.410;2023-04-25T02:44:49;0.63;;;0.47;;
55601;SDS011;59921;51.332;12.410;2023-04-25T02:47:15;0.80;;;0.75;;
55601;SDS011;59921;51.332;12.410;2023-04-25T02:49:40;0.70;;;0.68;;
55601;SDS011;59921;51.332;12.410;2023-04-25T02:52:08;0.95;;;0.77;;
55601;SDS011;59921;51.332;12.410;2023-04-25T02:54:34;1.00;;;0.90;;
55601;SDS011;59921;51.332;12.410;2023-04-25T02:56:59;0.77;;;0.77;;
55601;SDS011;59921;51.332;12.410;2023-04-25T02:59:26;0.93;;;0.75;;
55601;SDS011;59921;51.332;12.410;2023-04-25T03:01:51;1.20;;;0.70;;
55601;SDS011;59921;51.332;12.410;2023-04-25T03:04:16;1.05;;;0.77;;
55601;SDS011;59921;51.332;12.410;2023-04-25T03:06:44;0.98;;;0.70;;
55601;SDS011;59921;51.332;12.410;2023-04-25T03:09:09;0.88;;;0.60;;
55601;SDS011;59921;51.332;12.410;2023-04-25T03:11:35;0.90;;;0.68;;
55601;SDS011;59921;51.332;12.410;2023-04-25T03:14:01;0.60;;;0.60;;
55601;SDS011;59921;51.332;12.410;2023-04-25T03:16:27;0.90;;;0.70;;
55601;SDS011;59921;51.332;12.410;2023-04-25T03:18:52;1.00;;;0.80;;
55601;SDS011;59921;51.332;12.410;2023-04-25T03:21:18;0.80;;;0.60;;
55601;SDS011;59921;51.332;12.410;2023-04-25T03:23:43;0.65;;;0.65;;
55601;SDS011;59921;51.332;12.410;2023-04-25T03:26:09;0.77;;;0.65;;
55601;SDS011;59921;51.332;12.410;2023-04-25T03:28:34;0.63;;;0.60;;
55601;SDS011;59921;51.332;12.410;2023-04-25T03:31:00;0.70;;;0.57;;
55601;SDS011;59921;51.332;12.410;2023-04-25T03:33:25;0.60;;;0.60;;
55601;SDS011;59921;51.332;12.410;2023-04-25T03:35:51;0.70;;;0.70;;
55601;SDS011;59921;51.332;12.410;2023-04-25T03:38:16;0.90;;;0.68;;
55601;SDS011;59921;51.332;12.410;2023-04-25T03:40:42;0.75;;;0.65;;
55601;SDS011;59921;51.332;12.410;2023-04-25T03:43:08;0.55;;;0.55;;
55601;SDS011;59921;51.332;12.410;2023-04-25T03:45:33;0.80;;;0.70;;
55601;SDS011;59921;51.332;12.410;2023-04-25T03:47:59;0.80;;;0.60;;
55601;SDS011;59921;51.332;12.410;2023-04-25T03:50:24;0.70;;;0.70;;
55601;SDS011;59921;51.332;12.410;2023-04-25T03:52:50;0.63;;;0.63;;
55601;SDS011;59921;51.332;12.410;2023-04-25T03:55:15;0.80;;;0.60;;
55601;SDS011;59921;51.332;12.410;2023-04-25T03:57:41;1.00;;;0.60;;
55601;SDS011;59921;51.332;12.410;2023-04-25T04:00:07;0.80;;;0.80;;
55601;SDS011;59921;51.332;12.410;2023-04-25T04:02:33;0.77;;;0.70;;
55601;SDS011;59921;51.332;12.410;2023-04-25T04:05:00;0.88;;;0.70;;
55601;SDS011;59921;51.332;12.410;2023-04-25T04:07:25;0.60;;;0.60;;
55601;SDS011;59921;51.332;12.410;2023-04-25T04:09:51;0.90;;;0.70;;
55601;SDS011;59921;51.332;12.410;2023-04-25T04:12:16;0.80;;;0.65;;
55601;SDS011;59921;51.332;12.410;2023-04-25T04:14:42;0.70;;;0.60;;
55601;SDS011;59921;51.332;12.410;2023-04-25T04:17:07;0.60;;;0.60;;
55601;SDS011;59921;51.332;12.410;2023-04-25T04:19:33;0.60;;;0.52;;
55601;SDS011;59921;51.332;12.410;2023-04-25T04:21:59;0.80;;;0.60;;
55601;SDS011;59921;51.332;12.410;2023-04-25T04:24:24;0.90;;;0.70;;
55601;SDS011;59921;51.332;12.410;2023-04-25T04:26:50;0.80;;;0.60;;
55601;SDS011;59921;51.332;12.410;2023-04-25T04:29:17;0.80;;;0.70;;
55601;SDS011;59921;51.332;12.410;2023-04-25T04:31:49;0.60;;;0.60;;
55601;SDS011;59921;51.332;12.410;2023-04-25T04:34:16;0.88;;;0.70;;
55601;SDS011;59921;51.332;12.410;2023-04-25T04:36:43;0.63;;;0.60;;
55601;SDS011;59921;51.332;12.410;2023-04-25T04:39:11;0.70;;;0.70;;
55601;SDS011;59921;51.332;12.410;2023-04-25T04:41:37;1.05;;;0.70;;
55601;SDS011;59921;51.332;12.410;2023-04-25T04:44:03;1.27;;;0.70;;
55601;SDS011;59921;51.332;12.410;2023-04-25T04:46:28;0.93;;;0.77;;
55601;SDS011;59921;51.332;12.410;2023-04-25T04:48:55;0.85;;;0.75;;
55601;SDS011;59921;51.332;12.410;2023-04-25T04:51:21;0.70;;;0.60;;
55601;SDS011;59921;51.332;12.410;2023-04-25T04:53:47;0.90;;;0.68;;
55601;SDS011;59921;51.332;12.410;2023-04-25T04:56:13;0.70;;;0.60;;
55601;SDS011;59921;51.332;12.410;2023-04-25T04:58:38;0.60;;;0.60;;
55601;SDS011;59921;51.332;12.410;2023-04-25T05:01:04;0.73;;;0.60;;
55601;SDS011;59921;51.332;12.410;2023-04-25T05:03:30;0.63;;;0.63;;
55601;SDS011;59921;51.332;12.410;2023-04-25T05:05:55;0.70;;;0.68;;
55601;SDS011;59921;51.332;12.410;2023-04-25T05:08:21;0.68;;;0.68;;
55601;SDS011;59921;51.332;12.410;2023-04-25T05:10:46;0.70;;;0.60;;
55601;SDS011;59921;51.332;12.410;2023-04-25T05:13:12;0.60;;;0.60;;
55601;SDS011;59921;51.332;12.410;2023-04-25T05:15:37;0.82;;;0.60;;
55601;SDS011;59921;51.332;12.410;2023-04-25T05:18:03;0.93;;;0.82;;
55601;SDS011;59921;51.332;12.410;2023-04-25T05:20:28;0.68;;;0.65;;
55601;SDS011;59921;51.332;12.410;2023-04-25T05:22:54;1.10;;;0.68;;
55601;SDS011;59921;51.332;12.410;2023-04-25T05:25:20;0.65;;;0.57;;
55601;SDS011;59921;51.332;12.410;2023-04-25T05:27:45;0.65;;;0.65;;
55601;SDS011;59921;51.332;12.410;2023-04-25T05:30:11;0.70;;;0.60;;
55601;SDS011;59921;51.332;12.410;2023-04-25T05:32:36;0.70;;;0.70;;
55601;SDS011;59921;51.332;12.410;2023-04-25T05:35:02;0.88;;;0.65;;
55601;SDS011;59921;51.332;12.410;2023-04-25T05:37:27;0.50;;;0.50;;
55601;SDS011;59921;51.332;12.410;2023-04-25T05:39:55;0.90;;;0.50;;
55601;SDS011;59921;51.332;12.410;2023-04-25T05:42:21;0.50;;;0.50;;
55601;SDS011;59921;51.332;12.410;2023-04-25T05:44:46;1.25;;;0.63;;
55601;SDS011;59921;51.332;12.410;2023-04-25T05:47:12;0.70;;;0.65;;
55601;SDS011;59921;51.332;12.410;2023-04-25T05:49:37;0.77;;;0.60;;
55601;SDS011;59921;51.332;12.410;2023-04-25T05:52:03;0.50;;;0.50;;
55601;SDS011;59921;51.332;12.410;2023-04-25T05:54:28;0.95;;;0.73;;
55601;SDS011;59921;51.332;12.410;2023-04-25T05:56:55;0.60;;;0.60;;
55601;SDS011;59921;51.332;12.410;2023-04-25T05:59:21;0.70;;;0.65;;
55601;SDS011;59921;51.332;12.410;2023-04-25T06:01:47;0.60;;;0.50;;
55601;SDS011;59921;51.332;12.410;2023-04-25T06:04:12;0.57;;;0.57;;
55601;SDS011;59921;51.332;12.410;2023-04-25T06:06:37;0.68;;;0.60;;
55601;SDS011;59921;51.332;12.410;2023-04-25T06:09:03;0.77;;;0.60;;
55601;SDS011;59921;51.332;12.410;2023-04-25T06:11:29;0.95;;;0.60;;
55601;SDS011;59921;51.332;12.410;2023-04-25T06:13:54;0.80;;;0.70;;
55601;SDS011;59921;51.332;12.410;2023-04-25T06:16:20;0.65;;;0.60;;
55601;SDS011;59921;51.332;12.410;2023-04-25T06:18:45;0.50;;;0.50;;
55601;SDS011;59921;51.332;12.410;2023-04-25T06:21:11;0.55;;;0.55;;
55601;SDS011;59921;51.332;12.410;2023-04-25T06:23:36;0.70;;;0.70;;
55601;SDS011;59921;51.332;12.410;2023-04-25T06:26:02;0.70;;;0.70;;
55601;SDS011;59921;51.332;12.410;2023-04-25T06:28:27;0.70;;;0.60;;
55601;SDS011;59921;51.332;12.410;2023-04-25T06:30:53;0.60;;;0.60;;
55601;SDS011;59921;51.332;12.410;2023-04-25T06:33:18;0.95;;;0.60;;
55601;SDS011;59921;51.332;12.410;2023-04-25T06:35:45;0.73;;;0.65;;
55601;SDS011;59921;51.332;12.410;2023-04-25T06:38:11;0.85;;;0.60;;
55601;SDS011;59921;51.332;12.410;2023-04-25T06:40:36;0.55;;;0.55;;
55601;SDS011;59921;51.332;12.410;2023-04-25T06:43:02;0.65;;;0.63;;
55601;SDS011;59921;51.332;12.410;2023-04-25T06:45:27;0.52;;;0.52;;
55601;SDS011;59921;51.332;12.410;2023-04-25T06:47:53;0.70;;;0.60;;
55601;SDS011;59921;51.332;12.410;2023-04-25T06:50:18;0.82;;;0.60;;
55601;SDS011;59921;51.332;12.410;2023-04-25T06:52:44;0.70;;;0.60;;
55601;SDS011;59921;51.332;12.410;2023-04-25T06:55:09;0.90;;;0.68;;
55601;SDS011;59921;51.332;12.410;2023-04-25T06:57:35;0.70;;;0.60;;
55601;SDS011;59921;51.332;12.410;2023-04-25T07:00:01;0.70;;;0.70;;
55601;SDS011;59921;51.332;12.410;2023-04-25T07:02:26;0.80;;;0.70;;
55601;SDS011;59921;51.332;12.410;2023-04-25T07:04:52;0.90;;;0.60;;
55601;SDS011;59921;51.332;12.410;2023-04-25T07:07:17;0.70;;;0.60;;
55601;SDS011;59921;51.332;12.410;2023-04-25T07:09:43;0.60;;;0.60;;
55601;SDS011;59921;51.332;12.410;2023-04-25T07:12:11;0.80;;;0.60;;
55601;SDS011;59921;51.332;12.410;2023-04-25T07:14:37;1.00;;;0.70;;
55601;SDS011;59921;51.332;12.410;2023-04-25T07:17:03;0.75;;;0.70;;
55601;SDS011;59921;51.332;12.410;2023-04-25T07:19:31;0.60;;;0.60;;
55601;SDS011;59921;51.332;12.410;2023-04-25T07:22:01;0.73;;;0.70;;
55601;SDS011;59921;51.332;12.410;2023-04-25T07:24:27;1.02;;;0.60;;
55601;SDS011;59921;51.332;12.410;2023-04-25T07:26:52;0.90;;;0.68;;
55601;SDS011;59921;51.332;12.410;2023-04-25T07:29:18;0.90;;;0.50;;
55601;SDS011;59921;51.332;12.410;2023-04-25T07:31:43;0.70;;;0.70;;
55601;SDS011;59921;51.332;12.410;2023-04-25T07:34:09;0.65;;;0.60;;
55601;SDS011;59921;51.332;12.410;2023-04-25T07:36:35;0.90;;;0.70;;
55601;SDS011;59921;51.332;12.410;2023-04-25T07:39:00;0.63;;;0.60;;
55601;SDS011;59921;51.332;12.410;2023-04-25T07:41:26;0.77;;;0.60;;
55601;SDS011;59921;51.332;12.410;2023-04-25T07:43:51;0.50;;;0.50;;
55601;SDS011;59921;51.332;12.410;2023-04-25T07:46:16;0.68;;;0.57;;
55601;SDS011;59921;51.332;12.410;2023-04-25T07:48:42;0.93;;;0.60;;
55601;SDS011;59921;51.332;12.410;2023-04-25T07:51:07;0.60;;;0.60;;
55601;SDS011;59921;51.332;12.410;2023-04-25T07:53:33;0.70;;;0.68;;
55601;SDS011;59921;51.332;12.410;2023-04-25T07:55:59;0.75;;;0.60;;
55601;SDS011;59921;51.332;12.410;2023-04-25T07:58:25;0.68;;;0.50;;
55601;SDS011;59921;51.332;12.410;2023-04-25T08:00:50;0.60;;;0.60;;
55601;SDS011;59921;51.332;12.410;2023-04-25T08:03:16;0.50;;;0.50;;
55601;SDS011;59921;51.332;12.410;2023-04-25T08:05:41;0.85;;;0.60;;
55601;SDS011;59921;51.332;12.410;2023-04-25T08:08:07;0.60;;;0.60;;
55601;SDS011;59921;51.332;12.410;2023-04-25T08:10:33;0.70;;;0.70;;
55601;SDS011;59921;51.332;12.410;2023-04-25T08:12:59;1.00;;;0.70;;
55601;SDS011;59921;51.332;12.410;2023-04-25T08:15:24;0.70;;;0.70;;
55601;SDS011;59921;51.332;12.410;2023-04-25T08:17:50;1.00;;;0.70;;
55601;SDS011;59921;51.332;12.410;2023-04-25T08:20:16;0.77;;;0.70;;
55601;SDS011;59921;51.332;12.410;2023-04-25T08:22:42;0.65;;;0.63;;
55601;SDS011;59921;51.332;12.410;2023-04-25T08:25:08;1.30;;;0.65;;
55601;SDS011;59921;51.332;12.410;2023-04-25T08:27:33;0.77;;;0.77;;
55601;SDS011;59921;51.332;12.410;2023-04-25T08:30:00;0.60;;;0.60;;
55601;SDS011;59921;51.332;12.410;2023-04-25T08:32:28;0.80;;;0.68;;
55601;SDS011;59921;51.332;12.410;2023-04-25T08:34:54;0.70;;;0.70;;
55601;SDS011;59921;51.332;12.410;2023-04-25T08:37:20;0.70;;;0.60;;
55601;SDS011;59921;51.332;12.410;2023-04-25T08:39:46;0.68;;;0.55;;
55601;SDS011;59921;51.332;12.410;2023-04-25T08:42:13;0.75;;;0.60;;
55601;SDS011;59921;51.332;12.410;2023-04-25T08:44:40;0.70;;;0.60;;
55601;SDS011;59921;51.332;12.410;2023-04-25T08:47:05;0.73;;;0.65;;
55601;SDS011;59921;51.332;12.410;2023-04-25T08:49:32;0.60;;;0.60;;
55601;SDS011;59921;51.332;12.410;2023-04-25T08:52:02;0.60;;;0.60;;
55601;SDS011;59921;51.332;12.410;2023-04-25T08:54:31;0.90;;;0.70;;
55601;SDS011;59921;51.332;12.410;2023-04-25T08:56:57;1.13;;;0.88;;
55601;SDS011;59921;51.332;12.410;2023-04-25T08:59:29;0.95;;;0.85;;
55601;SDS011;59921;51.332;12.410;2023-04-25T09:01:56;0.77;;;0.75;;
55601;SDS011;59921;51.332;12.410;2023-04-25T09:04:22;0.70;;;0.70;;
55601;SDS011;59921;51.332;12.410;2023-04-25T09:06:47;0.80;;;0.60;;
55601;SDS011;59921;51.332;12.410;2023-04-25T09:09:13;1.05;;;0.70;;
55601;SDS011;59921;51.332;12.410;2023-04-25T09:11:39;0.70;;;0.65;;
55601;SDS011;59921;51.332;12.410;2023-04-25T09:14:18;0.90;;;0.77;;
55601;SDS011;59921;51.332;12.410;2023-04-25T09:19:23;1.42;;;0.88;;
55601;SDS011;59921;51.332;12.410;2023-04-25T09:21:51;0.82;;;0.70;;
55601;SDS011;59921;51.332;12.410;2023-04-25T09:24:32;1.23;;;0.88;;
55601;SDS011;59921;51.332;12.410;2023-04-25T09:26:59;1.05;;;0.80;;
55601;SDS011;59921;51.332;12.410;2023-04-25T09:29:33;0.68;;;0.60;;
55601;SDS011;59921;51.332;12.410;2023-04-25T09:34:50;1.52;;;0.88;;
55601;SDS011;59921;51.332;12.410;2023-04-25T09:39:45;1.50;;;0.98;;
55601;SDS011;59921;51.332;12.410;2023-04-25T09:42:13;1.70;;;0.95;;
55601;SDS011;59921;51.332;12.410;2023-04-25T09:44:44;1.02;;;0.80;;
55601;SDS011;59921;51.332;12.410;2023-04-25T09:47:11;0.98;;;0.85;;
55601;SDS011;59921;51.332;12.410;2023-04-25T09:49:41;2.00;;;0.90;;
55601;SDS011;59921;51.332;12.410;2023-04-25T09:52:08;1.40;;;0.90;;
55601;SDS011;59921;51.332;12.410;2023-04-25T09:54:34;1.73;;;0.90;;
55601;SDS011;59921;51.332;12.410;2023-04-25T09:57:03;1.65;;;1.00;;
55601;SDS011;59921;51.332;12.410;2023-04-25T09:59:38;1.40;;;0.90;;
55601;SDS011;59921;51.332;12.410;2023-04-25T10:02:05;1.60;;;1.10;;
55601;SDS011;59921;51.332;12.410;2023-04-25T10:04:33;1.13;;;0.80;;
55601;SDS011;59921;51.332;12.410;2023-04-25T10:07:00;1.05;;;0.82;;
55601;SDS011;59921;51.332;12.410;2023-04-25T10:09:28;1.27;;;1.02;;
55601;SDS011;59921;51.332;12.410;2023-04-25T10:11:57;1.02;;;0.90;;
55601;SDS011;59921;51.332;12.410;2023-04-25T10:14:23;1.27;;;0.80;;
55601;SDS011;59921;51.332;12.410;2023-04-25T10:16:50;1.20;;;0.90;;
55601;SDS011;59921;51.332;12.410;2023-04-25T10:19:19;1.67;;;0.80;;
55601;SDS011;59921;51.332;12.410;2023-04-25T10:21:50;1.17;;;0.90;;
55601;SDS011;59921;51.332;12.410;2023-04-25T10:24:17;1.65;;;1.10;;
55601;SDS011;59921;51.332;12.410;2023-04-25T10:26:44;1.38;;;1.00;;
55601;SDS011;59921;51.332;12.410;2023-04-25T10:29:10;1.15;;;0.95;;
55601;SDS011;59921;51.332;12.410;2023-04-25T10:31:44;1.52;;;1.00;;
55601;SDS011;59921;51.332;12.410;2023-04-25T10:34:12;1.75;;;1.00;;
55601;SDS011;59921;51.332;12.410;2023-04-25T10:36:38;1.33;;;0.90;;
55601;SDS011;59921;51.332;12.410;2023-04-25T10:39:05;1.52;;;0.95;;
55601;SDS011;59921;51.332;12.410;2023-04-25T10:41:47;1.42;;;0.98;;
55601;SDS011;59921;51.332;12.410;2023-04-25T10:44:17;1.38;;;0.98;;
55601;SDS011;59921;51.332;12.410;2023-04-25T10:46:43;1.25;;;0.80;;
55601;SDS011;59921;51.332;12.410;2023-04-25T10:49:09;1.00;;;0.82;;
55601;SDS011;59921;51.332;12.410;2023-04-25T10:51:36;1.10;;;0.90;;
55601;SDS011;59921;51.332;12.410;2023-04-25T10:54:02;1.00;;;0.90;;
55601;SDS011;59921;51.332;12.410;2023-04-25T10:56:30;1.50;;;0.90;;
55601;SDS011;59921;51.332;12.410;2023-04-25T10:59:10;1.20;;;0.90;;
55601;SDS011;59921;51.332;12.410;2023-04-25T11:01:38;1.30;;;1.00;;
55601;SDS011;59921;51.332;12.410;2023-04-25T11:04:05;1.42;;;0.90;;
55601;SDS011;59921;51.332;12.410;2023-04-25T11:09:11;1.00;;;0.90;;
55601;SDS011;59921;51.332;12.410;2023-04-25T11:11:40;1.40;;;1.05;;
55601;SDS011;59921;51.332;12.410;2023-04-25T11:14:06;1.40;;;0.90;;
55601;SDS011;59921;51.332;12.410;2023-04-25T11:16:32;1.70;;;1.10;;
55601;SDS011;59921;51.332;12.410;2023-04-25T11:18:58;1.25;;;0.90;;
55601;SDS011;59921;51.332;12.410;2023-04-25T11:21:26;1.48;;;0.90;;
55601;SDS011;59921;51.332;12.410;2023-04-25T11:23:56;1.30;;;0.90;;
55601;SDS011;59921;51.332;12.410;2023-04-25T11:26:22;1.42;;;0.90;;
55601;SDS011;59921;51.332;12.410;2023-04-25T11:28:49;1.45;;;0.90;;
55601;SDS011;59921;51.332;12.410;2023-04-25T11:31:15;1.10;;;0.82;;
55601;SDS011;59921;51.332;12.410;2023-04-25T11:33:41;1.30;;;0.98;;
55601;SDS011;59921;51.332;12.410;2023-04-25T11:36:07;1.38;;;0.90;;
55601;SDS011;59921;51.332;12.410;2023-04-25T11:38:33;1.20;;;0.82;;
55601;SDS011;59921;51.332;12.410;2023-04-25T11:40:59;1.52;;;0.90;;
55601;SDS011;59921;51.332;12.410;2023-04-25T11:43:25;1.63;;;0.90;;
55601;SDS011;59921;51.332;12.410;2023-04-25T11:45:51;1.50;;;0.90;;
55601;SDS011;59921;51.332;12.410;2023-04-25T11:48:20;1.10;;;0.88;;
55601;SDS011;59921;51.332;12.410;2023-04-25T11:50:45;1.65;;;1.08;;
55601;SDS011;59921;51.332;12.410;2023-04-25T11:53:11;1.48;;;1.00;;
55601;SDS011;59921;51.332;12.410;2023-04-25T11:55:37;1.00;;;0.80;;
55601;SDS011;59921;51.332;12.410;2023-04-25T11:58:03;1.80;;;0.95;;
55601;SDS011;59921;51.332;12.410;2023-04-25T12:00:30;1.58;;;0.95;;
55601;SDS011;59921;51.332;12.410;2023-04-25T12:02:56;1.15;;;0.90;;
55601;SDS011;59921;51.332;12.410;2023-04-25T12:05:27;1.48;;;1.00;;
55601;SDS011;59921;51.332;12.410;2023-04-25T12:07:54;1.55;;;1.10;;
55601;SDS011;59921;51.332;12.410;2023-04-25T12:10:19;1.92;;;1.13;;
55601;SDS011;59921;51.332;12.410;2023-04-25T12:12:46;1.63;;;1.10;;
55601;SDS011;59921;51.332;12.410;2023-04-25T12:15:13;1.33;;;0.90;;
55601;SDS011;59921;51.332;12.410;2023-04-25T12:17:58;1.50;;;0.90;;
55601;SDS011;59921;51.332;12.410;2023-04-25T12:20:24;1.33;;;0.80;;
55601;SDS011;59921;51.332;12.410;2023-04-25T12:22:51;1.60;;;1.00;;
55601;SDS011;59921;51.332;12.410;2023-04-25T12:25:36;1.52;;;0.80;;
55601;SDS011;59921;51.332;12.410;2023-04-25T12:33:33;1.50;;;1.00;;
55601;SDS011;59921;51.332;12.410;2023-04-25T12:36:00;1.30;;;0.93;;
55601;SDS011;59921;51.332;12.410;2023-04-25T12:38:37;1.02;;;0.90;;
55601;SDS011;59921;51.332;12.410;2023-04-25T12:41:03;1.60;;;1.00;;
55601;SDS011;59921;51.332;12.410;2023-04-25T12:43:29;1.70;;;1.10;;
55601;SDS011;59921;51.332;12.410;2023-04-25T12:45:58;1.90;;;1.00;;
55601;SDS011;59921;51.332;12.410;2023-04-25T12:48:23;1.13;;;0.82;;
55601;SDS011;59921;51.332;12.410;2023-04-25T12:50:49;1.23;;;0.90;;
55601;SDS011;59921;51.332;12.410;2023-04-25T12:53:16;1.40;;;0.90;;
55601;SDS011;59921;51.332;12.410;2023-04-25T12:55:46;1.92;;;1.00;;
55601;SDS011;59921;51.332;12.410;2023-04-25T12:58:12;0.90;;;0.80;;
55601;SDS011;59921;51.332;12.410;2023-04-25T13:00:38;1.42;;;0.90;;
55601;SDS011;59921;51.332;12.410;2023-04-25T13:03:04;0.85;;;0.80;;
55601;SDS011;59921;51.332;12.410;2023-04-25T13:05:30;1.75;;;0.95;;
55601;SDS011;59921;51.332;12.410;2023-04-25T13:07:56;1.38;;;1.08;;
55601;SDS011;59921;51.332;12.410;2023-04-25T13:10:22;1.02;;;0.90;;
55601;SDS011;59921;51.332;12.410;2023-04-25T13:12:47;1.40;;;0.85;;
55601;SDS011;59921;51.332;12.410;2023-04-25T13:15:13;1.20;;;1.00;;
55601;SDS011;59921;51.332;12.410;2023-04-25T13:17:40;1.40;;;1.02;;
55601;SDS011;59921;51.332;12.410;2023-04-25T13:20:07;1.17;;;0.95;;
55601;SDS011;59921;51.332;12.410;2023-04-25T13:22:37;1.00;;;0.90;;
55601;SDS011;59921;51.332;12.410;2023-04-25T13:25:03;1.30;;;0.90;;
55601;SDS011;59921;51.332;12.410;2023-04-25T13:27:30;2.22;;;1.10;;
55601;SDS011;59921;51.332;12.410;2023-04-25T13:29:58;1.10;;;0.80;;
55601;SDS011;59921;51.332;12.410;2023-04-25T13:32:23;1.55;;;1.10;;
55601;SDS011;59921;51.332;12.410;2023-04-25T13:34:50;1.80;;;1.10;;
55601;SDS011;59921;51.332;12.410;2023-04-25T13:37:16;1.83;;;1.00;;
55601;SDS011;59921;51.332;12.410;2023-04-25T13:39:42;1.70;;;1.00;;
55601;SDS011;59921;51.332;12.410;2023-04-25T13:42:07;1.77;;;1.10;;
55601;SDS011;59921;51.332;12.410;2023-04-25T13:44:33;1.20;;;0.80;;
55601;SDS011;59921;51.332;12.410;2023-04-25T13:46:58;2.05;;;0.98;;
55601;SDS011;59921;51.332;12.410;2023-04-25T13:49:25;1.67;;;1.00;;
55601;SDS011;59921;51.332;12.410;2023-04-25T13:51:51;1.40;;;1.00;;
55601;SDS011;59921;51.332;12.410;2023-04-25T13:54:17;2.05;;;1.00;;
55601;SDS011;59921;51.332;12.410;2023-04-25T13:56:42;1.85;;;1.02;;
55601;SDS011;59921;51.332;12.410;2023-04-25T13:59:08;2.15;;;0.90;;
55601;SDS011;59921;51.332;12.410;2023-04-25T14:01:33;1.52;;;1.00;;
55601;SDS011;59921;51.332;12.410;2023-04-25T14:04:00;1.83;;;1.05;;
55601;SDS011;59921;51.332;12.410;2023-04-25T14:06:28;1.55;;;1.08;;
55601;SDS011;59921;51.332;12.410;2023-04-25T14:08:53;1.80;;;1.20;;
55601;SDS011;59921;51.332;12.410;2023-04-25T14:11:19;1.30;;;1.00;;
55601;SDS011;59921;51.332;12.410;2023-04-25T14:13:45;1.92;;;1.10;;
55601;SDS011;59921;51.332;12.410;2023-04-25T14:16:11;2.03;;;1.30;;
55601;SDS011;59921;51.332;12.410;2023-04-25T14:18:37;2.20;;;1.17;;
55601;SDS011;59921;51.332;12.410;2023-04-25T14:21:02;1.38;;;1.02;;
55601;SDS011;59921;51.332;12.410;2023-04-25T14:23:28;1.60;;;1.08;;
55601;SDS011;59921;51.332;12.410;2023-04-25T14:25:53;1.95;;;1.40;;
55601;SDS011;59921;51.332;12.410;2023-04-25T14:28:19;1.88;;;1.10;;
55601;SDS011;59921;51.332;12.410;2023-04-25T14:30:45;1.95;;;1.20;;
55601;SDS011;59921;51.332;12.410;2023-04-25T14:33:11;1.65;;;1.25;;
55601;SDS011;59921;51.332;12.410;2023-04-25T14:35:36;2.33;;;1.40;;
55601;SDS011;59921;51.332;12.410;2023-04-25T14:38:02;1.88;;;1.20;;
55601;SDS011;59921;51.332;12.410;2023-04-25T14:40:28;1.67;;;1.20;;
55601;SDS011;59921;51.332;12.410;2023-04-25T14:42:54;2.05;;;0.98;;
55601;SDS011;59921;51.332;12.410;2023-04-25T14:45:19;1.92;;;1.02;;